createdAt,value
2022-12-31T00:00:00.890Z,10.18
2022-12-31T00:01:01.033Z,10.15
2022-12-31T00:02:01.312Z,10.13
2022-12-31T00:03:00.555Z,10.12
2022-12-31T00:04:00.507Z,10.14
2022-12-31T00:05:00.666Z,10.16
2022-12-31T00:06:00.804Z,10.2
2022-12-31T00:07:00.954Z,10.19
2022-12-31T00:08:01.185Z,10.19
2022-12-31T00:09:01.262Z,10.18
2022-12-31T00:10:00.393Z,10.18
2022-12-31T00:11:00.541Z,10.2
2022-12-31T00:12:00.681Z,10.19
2022-12-31T00:13:00.859Z,10.2
2022-12-31T00:14:00.975Z,10.2
2022-12-31T00:15:01.123Z,10.19
2022-12-31T00:16:00.255Z,10.2
2022-12-31T00:17:00.456Z,10.23
2022-12-31T00:18:00.579Z,10.24
2022-12-31T00:19:00.719Z,10.24
2022-12-31T00:20:00.868Z,10.26
2022-12-31T00:21:01.013Z,10.25
2022-12-31T00:22:01.155Z,10.25
2022-12-31T00:23:00.347Z,10.23
2022-12-31T00:24:00.456Z,10.24
2022-12-31T00:25:00.605Z,10.24
2022-12-31T00:26:00.763Z,10.28
2022-12-31T00:27:00.917Z,10.31
2022-12-31T00:28:01.156Z,10.31
2022-12-31T00:29:01.224Z,10.31
2022-12-31T00:30:04.492Z,10.36
2022-12-31T00:31:00.531Z,10.38
2022-12-31T00:32:00.661Z,10.4
2022-12-31T00:33:00.817Z,10.37
2022-12-31T00:34:01.007Z,10.36
2022-12-31T00:35:01.100Z,10.39
2022-12-31T00:36:01.244Z,10.42
2022-12-31T00:37:00.390Z,10.46
2022-12-31T00:38:00.556Z,10.49
2022-12-31T00:39:00.709Z,10.49
2022-12-31T00:40:00.856Z,10.52
2022-12-31T00:41:01.010Z,10.52
2022-12-31T00:42:01.151Z,10.51
2022-12-31T00:43:00.320Z,10.51
2022-12-31T00:44:00.460Z,10.53
2022-12-31T00:45:00.601Z,10.51
2022-12-31T00:46:00.772Z,10.53
2022-12-31T00:47:00.954Z,10.57
2022-12-31T00:48:01.046Z,10.58
2022-12-31T00:49:01.242Z,10.57
2022-12-31T00:50:00.355Z,10.57
2022-12-31T00:51:00.501Z,10.57
2022-12-31T00:52:00.651Z,10.56
2022-12-31T00:53:00.807Z,10.57
2022-12-31T00:54:00.968Z,10.59
2022-12-31T00:55:01.127Z,10.63
2022-12-31T00:56:01.260Z,10.65
2022-12-31T00:57:00.401Z,10.63
2022-12-31T00:58:00.552Z,10.68
2022-12-31T00:59:00.722Z,10.75
2022-12-31T01:00:00.853Z,10.78
2022-12-31T01:01:01.113Z,10.78
2022-12-31T01:02:01.294Z,10.78
2022-12-31T01:03:00.450Z,10.83
2022-12-31T01:04:00.458Z,10.85
2022-12-31T01:05:00.578Z,10.86
2022-12-31T01:06:00.740Z,10.86
2022-12-31T01:07:00.909Z,10.85
2022-12-31T01:08:01.036Z,10.86
2022-12-31T01:09:01.214Z,10.84
2022-12-31T01:10:00.323Z,10.84
2022-12-31T01:11:00.457Z,10.85
2022-12-31T01:12:00.642Z,10.87
2022-12-31T01:13:00.749Z,10.93
2022-12-31T01:14:00.920Z,10.97
2022-12-31T01:15:01.086Z,10.99
2022-12-31T01:16:01.247Z,11
2022-12-31T01:17:00.371Z,10.99
2022-12-31T01:18:00.532Z,11.01
2022-12-31T01:19:00.652Z,11
2022-12-31T01:20:00.838Z,10.99
2022-12-31T01:21:00.980Z,10.98
2022-12-31T01:22:01.107Z,10.98
2022-12-31T01:23:01.249Z,11.02
2022-12-31T01:24:00.387Z,11.08
2022-12-31T01:25:00.539Z,11.14
2022-12-31T01:26:00.720Z,11.15
2022-12-31T01:27:00.843Z,11.18
2022-12-31T01:28:00.987Z,11.18
2022-12-31T01:29:01.129Z,11.14
2022-12-31T01:30:00.270Z,11.13
2022-12-31T01:31:00.501Z,11.15
2022-12-31T01:32:00.568Z,11.19
2022-12-31T01:33:00.718Z,11.2
2022-12-31T01:34:00.847Z,11.2
2022-12-31T01:35:00.998Z,11.2
2022-12-31T01:36:01.164Z,11.2
2022-12-31T01:37:00.291Z,11.19
2022-12-31T01:38:00.445Z,11.22
2022-12-31T01:39:00.607Z,11.26
2022-12-31T01:40:00.756Z,11.26
2022-12-31T01:41:00.907Z,11.24
2022-12-31T01:42:01.037Z,11.24
2022-12-31T01:43:01.196Z,11.24
2022-12-31T01:44:00.332Z,11.24
2022-12-31T01:45:00.474Z,11.25
2022-12-31T01:46:00.763Z,11.23
2022-12-31T01:47:00.807Z,11.24
2022-12-31T01:48:00.918Z,11.29
2022-12-31T01:49:01.080Z,11.32
2022-12-31T01:50:01.209Z,11.29
2022-12-31T01:51:00.362Z,11.29
2022-12-31T01:52:00.547Z,11.29
2022-12-31T01:53:00.688Z,11.29
2022-12-31T01:54:00.805Z,11.28
2022-12-31T01:55:00.956Z,11.3
2022-12-31T01:56:01.117Z,11.36
2022-12-31T01:57:01.243Z,11.39
2022-12-31T01:58:00.408Z,11.42
2022-12-31T01:59:00.562Z,11.46
2022-12-31T02:00:00.693Z,11.48
2022-12-31T02:01:00.941Z,11.52
2022-12-31T02:02:01.100Z,11.54
2022-12-31T02:03:01.184Z,11.56
2022-12-31T02:04:00.313Z,11.55
2022-12-31T02:05:00.448Z,11.59
2022-12-31T02:06:00.568Z,11.59
2022-12-31T02:07:00.714Z,11.58
2022-12-31T02:08:00.880Z,11.6
2022-12-31T02:09:01.045Z,11.6
2022-12-31T02:10:01.186Z,11.62
2022-12-31T02:11:00.320Z,11.59
2022-12-31T02:12:00.469Z,11.55
2022-12-31T02:13:00.648Z,11.53
2022-12-31T02:14:00.774Z,11.55
2022-12-31T02:15:00.923Z,11.58
2022-12-31T02:16:01.109Z,11.62
2022-12-31T02:17:01.223Z,11.62
2022-12-31T02:18:00.390Z,11.64
2022-12-31T02:19:00.514Z,11.62
2022-12-31T02:20:00.684Z,11.61
2022-12-31T02:21:00.808Z,11.66
2022-12-31T02:22:00.965Z,11.64
2022-12-31T02:23:01.100Z,11.63
2022-12-31T02:24:01.257Z,11.68
2022-12-31T02:25:00.399Z,11.7
2022-12-31T02:26:00.547Z,11.73
2022-12-31T02:27:00.714Z,11.74
2022-12-31T02:28:00.844Z,11.72
2022-12-31T02:29:00.988Z,11.69
2022-12-31T02:30:01.137Z,11.7
2022-12-31T02:31:00.305Z,11.72
2022-12-31T02:32:00.467Z,11.71
2022-12-31T02:33:02.665Z,11.7
2022-12-31T02:34:00.743Z,11.71
2022-12-31T02:35:00.902Z,11.73
2022-12-31T02:36:01.042Z,11.7
2022-12-31T02:37:01.206Z,11.7
2022-12-31T02:38:00.333Z,11.7
2022-12-31T02:39:00.478Z,11.69
2022-12-31T02:40:00.630Z,11.69
2022-12-31T02:41:00.775Z,11.7
2022-12-31T02:42:00.958Z,11.7
2022-12-31T02:43:01.086Z,11.7
2022-12-31T02:44:01.227Z,11.72
2022-12-31T02:45:00.395Z,11.7
2022-12-31T02:46:00.521Z,11.7
2022-12-31T02:47:00.678Z,11.7
2022-12-31T02:48:00.817Z,11.7
2022-12-31T02:49:00.980Z,11.73
2022-12-31T02:50:01.178Z,11.76
2022-12-31T02:51:00.262Z,11.79
2022-12-31T02:52:00.413Z,11.78
2022-12-31T02:53:00.566Z,11.78
2022-12-31T02:54:00.713Z,11.76
2022-12-31T02:55:00.883Z,11.76
2022-12-31T02:56:01.014Z,11.81
2022-12-31T02:57:01.156Z,11.85
2022-12-31T02:58:00.321Z,11.88
2022-12-31T02:59:00.435Z,11.88
2022-12-31T03:00:00.619Z,11.87
2022-12-31T03:01:00.797Z,11.89
2022-12-31T03:02:00.968Z,11.9
2022-12-31T03:03:01.072Z,11.92
2022-12-31T03:04:01.185Z,11.91
2022-12-31T03:05:00.349Z,11.9
2022-12-31T03:06:00.487Z,11.89
2022-12-31T03:07:00.639Z,11.9
2022-12-31T03:08:00.784Z,11.91
2022-12-31T03:09:00.929Z,11.94
2022-12-31T03:10:01.111Z,11.98
2022-12-31T03:11:01.223Z,12
2022-12-31T03:12:00.376Z,12.01
2022-12-31T03:13:00.524Z,12.01
2022-12-31T03:14:00.667Z,12.02
2022-12-31T03:15:00.860Z,12.02
2022-12-31T03:16:01.034Z,12.05
2022-12-31T03:17:01.130Z,12.06
2022-12-31T03:18:00.256Z,12.07
2022-12-31T03:19:00.409Z,12.08
2022-12-31T03:20:00.565Z,12.12
2022-12-31T03:21:00.731Z,12.16
2022-12-31T03:22:00.847Z,12.14
2022-12-31T03:23:01.002Z,12.11
2022-12-31T03:24:01.154Z,12.12
2022-12-31T03:25:00.303Z,12.13
2022-12-31T03:26:00.472Z,12.14
2022-12-31T03:27:00.612Z,12.15
2022-12-31T03:28:00.755Z,12.18
2022-12-31T03:29:00.933Z,12.22
2022-12-31T03:30:01.056Z,12.25
2022-12-31T03:31:01.326Z,12.26
2022-12-31T03:32:00.340Z,12.25
2022-12-31T03:33:00.515Z,12.23
2022-12-31T03:34:00.674Z,12.27
2022-12-31T03:35:00.779Z,12.29
2022-12-31T03:36:00.927Z,12.33
2022-12-31T03:37:01.075Z,12.35
2022-12-31T03:38:01.223Z,12.35
2022-12-31T03:39:00.388Z,12.35
2022-12-31T03:40:00.508Z,12.34
2022-12-31T03:41:00.669Z,12.37
2022-12-31T03:42:00.820Z,12.38
2022-12-31T03:43:00.980Z,12.42
2022-12-31T03:44:01.133Z,12.4
2022-12-31T03:45:00.265Z,12.38
2022-12-31T03:46:00.446Z,12.38
2022-12-31T03:47:00.562Z,12.38
2022-12-31T03:48:00.720Z,12.42
2022-12-31T03:49:00.891Z,12.44
2022-12-31T03:50:01.007Z,12.43
2022-12-31T03:51:01.152Z,12.46
2022-12-31T03:52:00.294Z,12.46
2022-12-31T03:53:00.457Z,12.5
2022-12-31T03:54:00.629Z,12.52
2022-12-31T03:55:00.755Z,12.52
2022-12-31T03:56:00.902Z,12.53
2022-12-31T03:57:01.050Z,12.51
2022-12-31T03:58:01.218Z,12.52
2022-12-31T03:59:00.408Z,12.52
2022-12-31T04:00:00.524Z,12.52
2022-12-31T04:01:00.752Z,12.49
2022-12-31T04:02:00.886Z,12.46
2022-12-31T04:03:01.006Z,12.43
2022-12-31T04:04:01.118Z,12.38
2022-12-31T04:05:01.247Z,12.4
2022-12-31T04:06:00.413Z,12.45
2022-12-31T04:07:00.541Z,12.45
2022-12-31T04:08:00.696Z,12.45
2022-12-31T04:09:00.858Z,12.41
2022-12-31T04:10:01.005Z,12.38
2022-12-31T04:11:01.141Z,12.37
2022-12-31T04:12:00.286Z,12.38
2022-12-31T04:13:00.431Z,12.37
2022-12-31T04:14:00.596Z,12.34
2022-12-31T04:15:00.771Z,12.33
2022-12-31T04:16:00.951Z,12.32
2022-12-31T04:17:01.033Z,12.3
2022-12-31T04:18:01.193Z,12.29
2022-12-31T04:19:00.352Z,12.28
2022-12-31T04:20:00.496Z,12.32
2022-12-31T04:21:00.666Z,12.34
2022-12-31T04:22:00.799Z,12.34
2022-12-31T04:23:00.951Z,12.34
2022-12-31T04:24:01.089Z,12.33
2022-12-31T04:25:01.238Z,12.33
2022-12-31T04:26:00.416Z,12.32
2022-12-31T04:27:07.068Z,12.35
2022-12-31T04:28:00.685Z,12.38
2022-12-31T04:29:00.840Z,12.38
2022-12-31T04:30:00.999Z,12.41
2022-12-31T04:31:01.144Z,12.41
2022-12-31T04:32:00.334Z,12.35
2022-12-31T04:33:00.420Z,12.38
2022-12-31T04:34:00.578Z,12.38
2022-12-31T04:35:00.727Z,12.35
2022-12-31T04:36:00.888Z,12.35
2022-12-31T04:37:01.016Z,12.33
2022-12-31T04:38:01.160Z,12.28
2022-12-31T04:39:00.309Z,12.21
2022-12-31T04:40:05.754Z,12.21
2022-12-31T04:41:00.647Z,12.25
2022-12-31T04:42:00.765Z,12.29
2022-12-31T04:43:00.928Z,12.31
2022-12-31T04:44:01.054Z,12.35
2022-12-31T04:45:01.235Z,12.38
2022-12-31T04:46:00.380Z,12.34
2022-12-31T04:47:00.507Z,12.32
2022-12-31T04:48:00.678Z,12.31
2022-12-31T04:49:00.816Z,12.25
2022-12-31T04:50:00.989Z,12.23
2022-12-31T04:51:01.112Z,12.27
2022-12-31T04:52:01.263Z,12.33
2022-12-31T04:53:00.422Z,12.35
2022-12-31T04:54:00.545Z,12.35
2022-12-31T04:55:00.721Z,12.35
2022-12-31T04:56:00.858Z,12.38
2022-12-31T04:57:01.013Z,12.34
2022-12-31T04:58:01.180Z,12.32
2022-12-31T04:59:00.306Z,12.36
2022-12-31T05:00:00.445Z,12.42
2022-12-31T05:01:00.726Z,12.46
2022-12-31T05:02:00.874Z,12.52
2022-12-31T05:03:00.946Z,12.55
2022-12-31T05:04:01.058Z,12.56
2022-12-31T05:05:01.190Z,12.59
2022-12-31T05:06:00.341Z,12.6
2022-12-31T05:07:00.493Z,12.63
2022-12-31T05:08:00.651Z,12.66
2022-12-31T05:09:00.776Z,12.65
2022-12-31T05:10:00.913Z,12.59
2022-12-31T05:11:01.063Z,12.53
2022-12-31T05:12:01.215Z,12.57
2022-12-31T05:13:00.358Z,12.53
2022-12-31T05:14:00.511Z,12.53
2022-12-31T05:15:00.648Z,12.52
2022-12-31T05:16:00.837Z,12.56
2022-12-31T05:17:01.019Z,12.59
2022-12-31T05:18:01.142Z,12.55
2022-12-31T05:19:01.247Z,12.52
2022-12-31T05:20:00.462Z,12.51
2022-12-31T05:21:00.549Z,12.52
2022-12-31T05:22:00.700Z,12.52
2022-12-31T05:23:00.862Z,12.55
2022-12-31T05:24:01.021Z,12.52
2022-12-31T05:25:01.163Z,12.47
2022-12-31T05:26:00.290Z,12.45
2022-12-31T05:27:00.436Z,12.47
2022-12-31T05:28:00.564Z,12.47
2022-12-31T05:29:00.748Z,12.48
2022-12-31T05:30:00.865Z,12.51
2022-12-31T05:31:01.081Z,12.52
2022-12-31T05:32:01.174Z,12.51
2022-12-31T05:33:00.316Z,12.48
2022-12-31T05:34:00.491Z,12.48
2022-12-31T05:35:00.606Z,12.48
2022-12-31T05:36:00.766Z,12.48
2022-12-31T05:37:00.904Z,12.44
2022-12-31T05:38:01.059Z,12.37
2022-12-31T05:39:01.226Z,12.37
2022-12-31T05:40:00.338Z,12.35
2022-12-31T05:41:00.521Z,12.41
2022-12-31T05:42:00.623Z,12.4
2022-12-31T05:43:00.769Z,12.4
2022-12-31T05:44:00.939Z,12.42
2022-12-31T05:45:01.081Z,12.4
2022-12-31T05:46:01.294Z,12.36
2022-12-31T05:47:00.373Z,12.34
2022-12-31T05:48:00.530Z,12.41
2022-12-31T05:49:00.689Z,12.43
2022-12-31T05:50:00.829Z,12.4
2022-12-31T05:51:00.942Z,12.38
2022-12-31T05:52:01.099Z,12.38
2022-12-31T05:53:01.247Z,12.41
2022-12-31T05:54:00.425Z,12.44
2022-12-31T05:55:00.540Z,12.44
2022-12-31T05:56:00.682Z,12.41
2022-12-31T05:57:00.843Z,12.42
2022-12-31T05:58:00.985Z,12.47
2022-12-31T05:59:01.144Z,12.46
2022-12-31T06:00:00.287Z,12.5
2022-12-31T06:01:00.487Z,12.51
2022-12-31T06:02:00.597Z,12.51
2022-12-31T06:03:00.850Z,12.52
2022-12-31T06:04:00.991Z,12.53
2022-12-31T06:05:01.032Z,12.52
2022-12-31T06:06:01.191Z,12.58
2022-12-31T06:07:00.326Z,12.6
2022-12-31T06:08:00.475Z,12.62
2022-12-31T06:09:00.629Z,12.6
2022-12-31T06:10:00.775Z,12.6
2022-12-31T06:11:00.912Z,12.67
2022-12-31T06:12:01.059Z,12.73
2022-12-31T06:13:01.233Z,12.75
2022-12-31T06:14:00.386Z,12.75
2022-12-31T06:15:00.511Z,12.79
2022-12-31T06:16:00.695Z,12.8
2022-12-31T06:17:00.815Z,12.81
2022-12-31T06:18:00.942Z,12.81
2022-12-31T06:19:01.119Z,12.8
2022-12-31T06:20:01.429Z,12.84
2022-12-31T06:21:00.394Z,12.9
2022-12-31T06:22:00.543Z,12.91
2022-12-31T06:23:00.700Z,12.96
2022-12-31T06:24:00.853Z,13.01
2022-12-31T06:25:00.989Z,13.03
2022-12-31T06:26:01.153Z,13.04
2022-12-31T06:27:00.290Z,13.05
2022-12-31T06:28:00.453Z,13.12
2022-12-31T06:29:00.622Z,13.15
2022-12-31T06:30:00.834Z,13.14
2022-12-31T06:31:00.983Z,13.15
2022-12-31T06:32:01.042Z,13.15
2022-12-31T06:33:01.199Z,13.12
2022-12-31T06:34:00.346Z,13.1
2022-12-31T06:35:00.505Z,13.12
2022-12-31T06:36:00.626Z,13.14
2022-12-31T06:37:00.785Z,13.12
2022-12-31T06:38:00.909Z,13.11
2022-12-31T06:39:01.059Z,13.12
2022-12-31T06:40:01.246Z,13.17
2022-12-31T06:41:00.367Z,13.15
2022-12-31T06:42:00.509Z,13.12
2022-12-31T06:43:00.731Z,13.11
2022-12-31T06:44:00.813Z,13.14
2022-12-31T06:45:00.971Z,13.12
2022-12-31T06:46:01.199Z,13.1
2022-12-31T06:47:00.268Z,13.1
2022-12-31T06:48:00.418Z,13.1
2022-12-31T06:49:00.573Z,13.11
2022-12-31T06:50:00.724Z,13.16
2022-12-31T06:51:00.852Z,13.18
2022-12-31T06:52:01.010Z,13.21
2022-12-31T06:53:01.156Z,13.19
2022-12-31T06:54:00.334Z,13.15
2022-12-31T06:55:00.484Z,13.08
2022-12-31T06:56:00.616Z,13.05
2022-12-31T06:57:00.784Z,13.04
2022-12-31T06:58:00.895Z,13.02
2022-12-31T06:59:01.059Z,13.04
2022-12-31T07:00:01.206Z,13.05
2022-12-31T07:01:00.381Z,13.03
2022-12-31T07:02:00.817Z,13.03
2022-12-31T07:03:00.758Z,13.01
2022-12-31T07:04:00.798Z,12.99
2022-12-31T07:05:00.957Z,13.01
2022-12-31T07:06:01.099Z,13.05
2022-12-31T07:07:01.266Z,13.09
2022-12-31T07:08:00.392Z,13.1
2022-12-31T07:09:00.539Z,13.11
2022-12-31T07:10:00.702Z,13.12
2022-12-31T07:11:00.831Z,13.15
2022-12-31T07:12:00.999Z,13.21
2022-12-31T07:13:01.201Z,13.24
2022-12-31T07:14:00.315Z,13.24
2022-12-31T07:15:00.446Z,13.25
2022-12-31T07:16:00.644Z,13.27
2022-12-31T07:17:00.748Z,13.3
2022-12-31T07:18:00.936Z,13.31
2022-12-31T07:19:01.059Z,13.31
2022-12-31T07:20:01.188Z,13.32
2022-12-31T07:21:00.342Z,13.34
2022-12-31T07:22:00.481Z,13.36
2022-12-31T07:23:00.664Z,13.36
2022-12-31T07:24:00.802Z,13.35
2022-12-31T07:25:00.921Z,13.34
2022-12-31T07:26:01.062Z,13.31
2022-12-31T07:27:01.221Z,13.29
2022-12-31T07:28:00.386Z,13.34
2022-12-31T07:29:00.512Z,13.36
2022-12-31T07:30:00.662Z,13.38
2022-12-31T07:31:00.885Z,13.38
2022-12-31T07:32:01.000Z,13.34
2022-12-31T07:33:01.135Z,13.34
2022-12-31T07:34:00.293Z,13.35
2022-12-31T07:35:00.410Z,13.38
2022-12-31T07:36:00.565Z,13.41
2022-12-31T07:37:00.756Z,13.45
2022-12-31T07:38:00.877Z,13.46
2022-12-31T07:39:01.026Z,13.5
2022-12-31T07:40:01.179Z,13.53
2022-12-31T07:41:05.492Z,13.59
2022-12-31T07:42:00.496Z,13.6
2022-12-31T07:43:00.617Z,13.59
2022-12-31T07:44:00.792Z,13.61
2022-12-31T07:45:00.895Z,13.62
2022-12-31T07:46:01.047Z,13.61
2022-12-31T07:47:01.237Z,13.59
2022-12-31T07:48:02.658Z,13.6
2022-12-31T07:49:00.497Z,13.64
2022-12-31T07:50:00.633Z,13.67
2022-12-31T07:51:00.781Z,13.67
2022-12-31T07:52:00.954Z,13.64
2022-12-31T07:53:01.117Z,13.64
2022-12-31T07:54:01.236Z,13.63
2022-12-31T07:55:00.383Z,13.67
2022-12-31T07:56:00.559Z,13.69
2022-12-31T07:57:00.691Z,13.71
2022-12-31T07:58:00.840Z,13.73
2022-12-31T07:59:00.966Z,13.75
2022-12-31T08:00:01.126Z,13.76
2022-12-31T08:02:00.539Z,13.75
2022-12-31T08:03:00.567Z,13.76
2022-12-31T08:04:00.671Z,13.78
2022-12-31T08:05:00.822Z,13.82
2022-12-31T08:06:00.966Z,13.84
2022-12-31T08:07:01.111Z,13.89
2022-12-31T08:08:01.286Z,13.92
2022-12-31T08:09:00.405Z,13.89
2022-12-31T08:10:00.551Z,13.88
2022-12-31T08:11:00.704Z,13.92
2022-12-31T08:12:00.857Z,13.92
2022-12-31T08:13:01.037Z,13.92
2022-12-31T08:14:01.154Z,13.89
2022-12-31T08:15:00.309Z,13.89
2022-12-31T08:16:00.511Z,13.89
2022-12-31T08:17:00.604Z,13.88
2022-12-31T08:18:00.781Z,13.84
2022-12-31T08:19:00.907Z,13.85
2022-12-31T08:20:01.049Z,13.9
2022-12-31T08:21:01.188Z,13.93
2022-12-31T08:22:00.339Z,13.92
2022-12-31T08:23:00.472Z,13.92
2022-12-31T08:24:00.649Z,13.96
2022-12-31T08:25:00.793Z,13.93
2022-12-31T08:26:00.938Z,13.89
2022-12-31T08:27:01.083Z,13.85
2022-12-31T08:28:01.239Z,13.86
2022-12-31T08:29:00.391Z,13.89
2022-12-31T08:30:00.528Z,13.95
2022-12-31T08:31:00.673Z,13.98
2022-12-31T08:32:00.854Z,13.99
2022-12-31T08:33:00.968Z,14.01
2022-12-31T08:34:05.807Z,14.03
2022-12-31T08:35:00.308Z,14.07
2022-12-31T08:36:00.419Z,14.08
2022-12-31T08:37:00.574Z,14.06
2022-12-31T08:38:00.719Z,14.05
2022-12-31T08:39:00.890Z,14.07
2022-12-31T08:40:01.054Z,14.07
2022-12-31T08:41:01.183Z,14.07
2022-12-31T08:42:00.351Z,14.1
2022-12-31T08:43:00.515Z,14.1
2022-12-31T08:44:00.644Z,14.1
2022-12-31T08:45:00.797Z,14.05
2022-12-31T08:46:00.988Z,14
2022-12-31T08:47:01.094Z,13.98
2022-12-31T08:48:01.296Z,14.01
2022-12-31T08:49:00.404Z,14.04
2022-12-31T08:50:00.540Z,14.07
2022-12-31T08:51:00.689Z,14.07
2022-12-31T08:52:00.838Z,14.07
2022-12-31T08:53:01.013Z,14.08
2022-12-31T08:54:01.155Z,14.1
2022-12-31T08:55:00.298Z,14.11
2022-12-31T08:56:00.448Z,14.1
2022-12-31T08:57:00.624Z,14.12
2022-12-31T08:58:00.751Z,14.17
2022-12-31T08:59:00.896Z,14.19
2022-12-31T09:00:01.057Z,14.24
2022-12-31T09:01:01.263Z,14.23
2022-12-31T09:02:00.472Z,14.25
2022-12-31T09:03:00.502Z,14.28
2022-12-31T09:04:00.652Z,14.29
2022-12-31T09:05:00.811Z,14.34
2022-12-31T09:06:00.930Z,14.35
2022-12-31T09:07:01.105Z,14.36
2022-12-31T09:08:01.252Z,14.36
2022-12-31T09:09:00.387Z,14.36
2022-12-31T09:10:00.552Z,14.39
2022-12-31T09:11:00.675Z,14.43
2022-12-31T09:12:00.835Z,14.43
2022-12-31T09:13:00.998Z,14.44
2022-12-31T09:14:01.143Z,14.44
2022-12-31T09:15:00.298Z,14.43
2022-12-31T09:16:00.466Z,14.44
2022-12-31T09:17:00.621Z,14.47
2022-12-31T09:18:00.738Z,14.47
2022-12-31T09:19:00.897Z,14.44
2022-12-31T09:20:01.047Z,14.47
2022-12-31T09:21:01.217Z,14.49
2022-12-31T09:22:00.347Z,14.5
2022-12-31T09:23:00.497Z,14.5
2022-12-31T09:24:05.853Z,14.52
2022-12-31T09:25:00.781Z,14.54
2022-12-31T09:26:00.949Z,14.54
2022-12-31T09:27:01.116Z,14.51
2022-12-31T09:28:01.248Z,14.49
2022-12-31T09:29:00.373Z,14.48
2022-12-31T09:30:00.542Z,14.47
2022-12-31T09:31:00.694Z,14.47
2022-12-31T09:32:00.906Z,14.5
2022-12-31T09:33:01.628Z,14.5
2022-12-31T09:34:01.106Z,14.51
2022-12-31T09:36:00.365Z,14.52
2022-12-31T09:37:00.561Z,14.52
2022-12-31T09:38:00.676Z,14.44
2022-12-31T09:39:00.823Z,14.45
2022-12-31T09:40:00.966Z,14.49
2022-12-31T09:41:01.117Z,14.49
2022-12-31T09:42:00.276Z,14.47
2022-12-31T09:43:00.456Z,14.47
2022-12-31T09:44:01.392Z,14.49
2022-12-31T09:45:00.730Z,14.56
2022-12-31T09:46:00.915Z,14.62
2022-12-31T09:47:01.011Z,14.65
2022-12-31T09:48:01.159Z,14.67
2022-12-31T09:49:00.295Z,14.68
2022-12-31T09:50:00.446Z,14.67
2022-12-31T09:51:00.611Z,14.67
2022-12-31T09:52:00.754Z,14.73
2022-12-31T09:53:00.940Z,14.74
2022-12-31T09:54:01.086Z,14.77
2022-12-31T09:55:01.231Z,14.8
2022-12-31T09:56:00.363Z,14.85
2022-12-31T09:57:00.501Z,14.88
2022-12-31T09:58:00.676Z,14.88
2022-12-31T09:59:00.798Z,14.92
2022-12-31T10:00:00.938Z,14.91
2022-12-31T10:01:01.227Z,14.93
2022-12-31T10:02:01.562Z,14.96
2022-12-31T10:03:00.445Z,14.97
2022-12-31T10:04:00.545Z,14.99
2022-12-31T10:05:00.725Z,15.04
2022-12-31T10:06:00.847Z,15.08
2022-12-31T10:07:01.003Z,15.1
2022-12-31T10:08:01.187Z,15.11
2022-12-31T10:09:00.291Z,15.14
2022-12-31T10:10:00.463Z,15.13
2022-12-31T10:11:00.584Z,15.15
2022-12-31T10:12:00.744Z,15.16
2022-12-31T10:13:00.885Z,15.17
2022-12-31T10:14:01.003Z,15.14
2022-12-31T10:15:01.153Z,15.14
2022-12-31T10:16:00.296Z,15.12
2022-12-31T10:17:00.492Z,15.11
2022-12-31T10:18:00.601Z,15.1
2022-12-31T10:19:00.733Z,15.08
2022-12-31T10:20:00.885Z,15.1
2022-12-31T10:21:01.031Z,15.12
2022-12-31T10:22:01.182Z,15.12
2022-12-31T10:23:00.347Z,15.12
2022-12-31T10:24:00.479Z,15.13
2022-12-31T10:25:00.630Z,15.15
2022-12-31T10:26:00.776Z,15.16
2022-12-31T10:27:00.922Z,15.14
2022-12-31T10:28:01.102Z,15.13
2022-12-31T10:29:01.210Z,15.14
2022-12-31T10:30:00.370Z,15.13
2022-12-31T10:31:00.583Z,15.14
2022-12-31T10:32:00.671Z,15.22
2022-12-31T10:33:00.843Z,15.25
2022-12-31T10:34:01.031Z,15.27
2022-12-31T10:35:01.140Z,15.24
2022-12-31T10:36:00.297Z,15.26
2022-12-31T10:37:00.422Z,15.26
2022-12-31T10:38:00.569Z,15.27
2022-12-31T10:39:00.721Z,15.29
2022-12-31T10:40:00.897Z,15.29
2022-12-31T10:41:01.009Z,15.29
2022-12-31T10:42:01.155Z,15.29
2022-12-31T10:43:00.310Z,15.31
2022-12-31T10:44:00.479Z,15.32
2022-12-31T10:45:00.631Z,15.29
2022-12-31T10:46:00.897Z,15.24
2022-12-31T10:47:00.908Z,15.25
2022-12-31T10:48:01.055Z,15.29
2022-12-31T10:49:01.207Z,15.31
2022-12-31T10:50:00.362Z,15.36
2022-12-31T10:51:00.520Z,15.34
2022-12-31T10:52:00.666Z,15.33
2022-12-31T10:53:00.805Z,15.37
2022-12-31T10:54:00.997Z,15.4
2022-12-31T10:55:01.234Z,15.43
2022-12-31T10:56:01.299Z,15.39
2022-12-31T10:57:00.415Z,15.39
2022-12-31T10:58:04.232Z,15.39
2022-12-31T10:59:00.691Z,15.41
2022-12-31T11:00:00.862Z,15.43
2022-12-31T11:01:01.163Z,15.44
2022-12-31T11:02:01.297Z,15.45
2022-12-31T11:03:00.396Z,15.43
2022-12-31T11:04:00.448Z,15.41
2022-12-31T11:05:00.612Z,15.39
2022-12-31T11:06:00.741Z,15.39
2022-12-31T11:07:00.903Z,15.42
2022-12-31T11:08:01.065Z,15.45
2022-12-31T11:09:01.214Z,15.44
2022-12-31T11:10:00.363Z,15.41
2022-12-31T11:11:00.507Z,15.43
2022-12-31T11:12:00.637Z,15.45
2022-12-31T11:13:00.789Z,15.45
2022-12-31T11:14:00.954Z,15.44
2022-12-31T11:15:01.091Z,15.46
2022-12-31T11:16:01.306Z,15.51
2022-12-31T11:17:00.389Z,15.55
2022-12-31T11:18:00.545Z,15.56
2022-12-31T11:19:00.688Z,15.55
2022-12-31T11:20:00.822Z,15.54
2022-12-31T11:21:00.999Z,15.49
2022-12-31T11:22:01.168Z,15.48
2022-12-31T11:23:00.275Z,15.49
2022-12-31T11:24:00.429Z,15.54
2022-12-31T11:25:00.625Z,15.56
2022-12-31T11:26:00.715Z,15.56
2022-12-31T11:27:00.866Z,15.56
2022-12-31T11:28:01.019Z,15.58
2022-12-31T11:29:01.160Z,15.57
2022-12-31T11:30:00.326Z,15.57
2022-12-31T11:31:00.528Z,15.58
2022-12-31T11:32:00.600Z,15.6
2022-12-31T11:33:00.760Z,15.61
2022-12-31T11:34:00.923Z,15.62
2022-12-31T11:35:01.067Z,15.59
2022-12-31T11:36:01.215Z,15.57
2022-12-31T11:37:00.362Z,15.55
2022-12-31T11:38:00.543Z,15.53
2022-12-31T11:39:00.675Z,15.55
2022-12-31T11:40:00.804Z,15.54
2022-12-31T11:41:00.950Z,15.54
2022-12-31T11:42:01.116Z,15.52
2022-12-31T11:43:01.310Z,15.53
2022-12-31T11:44:00.427Z,15.53
2022-12-31T11:45:00.579Z,15.56
2022-12-31T11:46:00.778Z,15.57
2022-12-31T11:47:00.872Z,15.6
2022-12-31T11:48:31.032Z,15.66
2022-12-31T11:49:01.163Z,15.66
2022-12-31T11:50:00.317Z,15.67
2022-12-31T11:51:00.466Z,15.7
2022-12-31T11:52:00.658Z,15.73
2022-12-31T11:53:00.764Z,15.74
2022-12-31T11:54:00.929Z,15.75
2022-12-31T11:55:01.074Z,15.77
2022-12-31T11:56:01.229Z,15.77
2022-12-31T11:57:00.381Z,15.8
2022-12-31T11:58:00.528Z,15.82
2022-12-31T11:59:04.790Z,15.84
2022-12-31T12:00:00.880Z,15.87
2022-12-31T12:01:01.008Z,15.81
2022-12-31T12:02:01.149Z,15.81
2022-12-31T12:03:00.311Z,15.81
2022-12-31T12:04:00.467Z,15.8
2022-12-31T12:05:05.036Z,15.82
2022-12-31T12:06:00.718Z,15.83
2022-12-31T12:07:00.886Z,15.84
2022-12-31T12:08:01.032Z,15.84
2022-12-31T12:09:01.164Z,15.87
2022-12-31T12:10:00.312Z,15.87
2022-12-31T12:11:00.456Z,15.89
2022-12-31T12:12:00.629Z,15.9
2022-12-31T12:13:00.767Z,15.89
2022-12-31T12:14:00.890Z,15.87
2022-12-31T12:15:01.040Z,15.88
2022-12-31T12:16:01.229Z,15.91
2022-12-31T12:17:04.891Z,15.93
2022-12-31T12:18:00.489Z,15.95
2022-12-31T12:19:00.617Z,15.95
2022-12-31T12:20:00.782Z,15.98
2022-12-31T12:21:00.942Z,16.02
2022-12-31T12:22:01.090Z,16.1
2022-12-31T12:23:01.216Z,16.16
2022-12-31T12:24:00.367Z,16.21
2022-12-31T12:25:00.529Z,16.24
2022-12-31T12:26:00.669Z,16.24
2022-12-31T12:27:00.838Z,16.22
2022-12-31T12:28:00.968Z,16.26
2022-12-31T12:29:01.122Z,16.27
2022-12-31T12:30:01.265Z,16.29
2022-12-31T12:31:00.490Z,16.27
2022-12-31T12:32:00.574Z,16.26
2022-12-31T12:33:00.699Z,16.26
2022-12-31T12:34:00.834Z,16.28
2022-12-31T12:35:00.992Z,16.3
2022-12-31T12:36:01.134Z,16.28
2022-12-31T12:37:00.278Z,16.26
2022-12-31T12:38:00.435Z,16.26
2022-12-31T12:39:00.587Z,16.27
2022-12-31T12:40:00.730Z,16.27
2022-12-31T12:41:00.871Z,16.29
2022-12-31T12:42:01.020Z,16.31
2022-12-31T12:43:01.194Z,16.3
2022-12-31T12:44:00.319Z,16.31
2022-12-31T12:45:00.486Z,16.31
2022-12-31T12:46:00.605Z,16.31
2022-12-31T12:47:00.802Z,16.3
2022-12-31T12:48:00.923Z,16.3
2022-12-31T12:49:01.076Z,16.26
2022-12-31T12:50:01.235Z,16.26
2022-12-31T12:51:00.382Z,16.19
2022-12-31T12:52:00.497Z,16.16
2022-12-31T12:53:00.680Z,16.13
2022-12-31T12:54:00.797Z,16.12
2022-12-31T12:55:00.980Z,16.12
2022-12-31T12:56:01.091Z,16.12
2022-12-31T12:57:01.260Z,16.14